KAUN

Auburn Municipal Airport

Auburn, California, USA
METAR KAUN 221835Z AUTO 00000KT 10SM CLR 12/M02 A3037 RMK A01
Observed Flight Rules
Jan-22 @ 18:35 UTC (19 minutes ago) Visual Flight Rules
Visibility Clouds
10 miles
  • Clear skies
Temperatures Readings
Current 12°C / 54°F
Dewpoint -2°C / 28°F
Humidity 38%
Altimeter 30.37" Hg
Pressure 1028.42 hPa
Elevation 467
METAR KAUN 221835Z AUTO 00000KT 10SM CLR 12/M02 A3037 RMK A01
Observed Flight Rules
Jan-22 @ 18:35 UTC
(19 minutes ago)
VFR
Clouds
  • Clear skies
Temperature Dewpoint
12°C / 54°F -2°C / 28°F
Humidity Altimeter Pressure
38% 30.37" Hg 1028.42 hPa